sensor_id;sensor_type;location;lat;lon;timestamp;pressure;altitude;pressure_sealevel;temperature;humidity
20015;BME280;61787;42.022;23.078;2023-03-26T00:00:54;96119.28;;;10.34;82.91
20015;BME280;61787;42.022;23.078;2023-03-26T00:01:56;96136.75;;;10.44;82.56
20015;BME280;61787;42.022;23.078;2023-03-26T00:02:58;96137.19;;;10.46;82.73
20015;BME280;61787;42.022;23.078;2023-03-26T00:04:00;96134.78;;;10.41;82.47
20015;BME280;61787;42.022;23.078;2023-03-26T00:05:02;96144.00;;;10.43;82.24
20015;BME280;61787;42.022;23.078;2023-03-26T00:06:07;96140.72;;;10.34;83.51
20015;BME280;61787;42.022;23.078;2023-03-26T00:07:09;96139.94;;;10.34;83.95
20015;BME280;61787;42.022;23.078;2023-03-26T00:08:10;96141.19;;;10.36;83.88
20015;BME280;61787;42.022;23.078;2023-03-26T00:09:12;96152.22;;;10.50;83.32
20015;BME280;61787;42.022;23.078;2023-03-26T00:10:14;96150.34;;;10.35;83.36
20015;BME280;61787;42.022;23.078;2023-03-26T00:11:17;96149.63;;;10.22;83.70
20015;BME280;61787;42.022;23.078;2023-03-26T00:12:19;96156.72;;;10.31;83.21
20015;BME280;61787;42.022;23.078;2023-03-26T00:13:21;96157.31;;;10.40;82.66
20015;BME280;61787;42.022;23.078;2023-03-26T00:14:22;96163.03;;;10.38;82.90
20015;BME280;61787;42.022;23.078;2023-03-26T00:15:24;96161.91;;;10.23;83.99
20015;BME280;61787;42.022;23.078;2023-03-26T00:16:28;96160.50;;;10.14;85.19
20015;BME280;61787;42.022;23.078;2023-03-26T00:17:30;96166.03;;;10.05;85.35
20015;BME280;61787;42.022;23.078;2023-03-26T00:18:31;96166.63;;;9.99;85.67
20015;BME280;61787;42.022;23.078;2023-03-26T00:19:35;96171.13;;;9.95;86.33
20015;BME280;61787;42.022;23.078;2023-03-26T00:20:37;96175.78;;;9.98;86.47
20015;BME280;61787;42.022;23.078;2023-03-26T00:21:38;96176.75;;;10.05;85.58
20015;BME280;61787;42.022;23.078;2023-03-26T00:22:41;96187.53;;;10.09;85.35
20015;BME280;61787;42.022;23.078;2023-03-26T00:23:43;96186.16;;;10.15;85.05
20015;BME280;61787;42.022;23.078;2023-03-26T00:24:45;96181.72;;;10.19;85.11
20015;BME280;61787;42.022;23.078;2023-03-26T00:25:50;96189.28;;;10.17;84.90
20015;BME280;61787;42.022;23.078;2023-03-26T00:26:52;96189.75;;;10.19;85.07
20015;BME280;61787;42.022;23.078;2023-03-26T00:27:54;96190.25;;;10.24;84.75
20015;BME280;61787;42.022;23.078;2023-03-26T00:28:56;96196.56;;;10.32;84.14
20015;BME280;61787;42.022;23.078;2023-03-26T00:29:59;96190.28;;;10.40;84.40
20015;BME280;61787;42.022;23.078;2023-03-26T00:31:03;96185.50;;;10.49;83.81
20015;BME280;61787;42.022;23.078;2023-03-26T00:32:05;96191.91;;;10.60;83.42
20015;BME280;61787;42.022;23.078;2023-03-26T00:33:07;96193.59;;;10.68;82.52
20015;BME280;61787;42.022;23.078;2023-03-26T00:34:12;96187.28;;;10.77;82.39
20015;BME280;61787;42.022;23.078;2023-03-26T00:35:16;96193.06;;;10.79;82.41
20015;BME280;61787;42.022;23.078;2023-03-26T00:36:17;96197.75;;;10.82;82.00
20015;BME280;61787;42.022;23.078;2023-03-26T00:37:23;96190.91;;;10.84;82.65
20015;BME280;61787;42.022;23.078;2023-03-26T00:38:28;96190.63;;;10.89;82.29
20015;BME280;61787;42.022;23.078;2023-03-26T00:39:29;96191.13;;;10.95;82.07
20015;BME280;61787;42.022;23.078;2023-03-26T00:40:34;96195.09;;;11.01;81.65
20015;BME280;61787;42.022;23.078;2023-03-26T00:41:37;96198.63;;;11.05;81.74
20015;BME280;61787;42.022;23.078;2023-03-26T00:42:43;96201.50;;;11.12;81.89
20015;BME280;61787;42.022;23.078;2023-03-26T00:43:45;96190.03;;;11.15;81.23
20015;BME280;61787;42.022;23.078;2023-03-26T00:44:47;96192.72;;;11.15;80.68
20015;BME280;61787;42.022;23.078;2023-03-26T00:45:53;96189.34;;;11.18;80.96
20015;BME280;61787;42.022;23.078;2023-03-26T00:46:55;96187.09;;;11.20;80.43
20015;BME280;61787;42.022;23.078;2023-03-26T00:47:56;96187.16;;;11.24;80.76
20015;BME280;61787;42.022;23.078;2023-03-26T00:48:59;96196.47;;;11.30;80.43
20015;BME280;61787;42.022;23.078;2023-03-26T00:50:00;96201.94;;;11.33;79.82
20015;BME280;61787;42.022;23.078;2023-03-26T00:51:05;96193.53;;;11.35;79.01
20015;BME280;61787;42.022;23.078;2023-03-26T00:52:06;96185.84;;;11.33;79.14
20015;BME280;61787;42.022;23.078;2023-03-26T00:53:09;96189.66;;;11.32;79.63
20015;BME280;61787;42.022;23.078;2023-03-26T00:54:12;96193.28;;;11.24;79.22
20015;BME280;61787;42.022;23.078;2023-03-26T00:55:14;96180.88;;;11.16;78.58
20015;BME280;61787;42.022;23.078;2023-03-26T00:56:17;96182.44;;;11.17;79.19
20015;BME280;61787;42.022;23.078;2023-03-26T00:57:19;96182.00;;;11.15;79.96
20015;BME280;61787;42.022;23.078;2023-03-26T00:58:36;96171.88;;;11.08;81.32
20015;BME280;61787;42.022;23.078;2023-03-26T00:59:39;96174.50;;;11.05;83.03
20015;BME280;61787;42.022;23.078;2023-03-26T01:01:08;96176.13;;;11.09;84.87
20015;BME280;61787;42.022;23.078;2023-03-26T01:02:12;96177.75;;;11.14;84.54
20015;BME280;61787;42.022;23.078;2023-03-26T01:03:18;96170.91;;;11.17;84.33
20015;BME280;61787;42.022;23.078;2023-03-26T01:04:31;96171.41;;;11.22;85.22
20015;BME280;61787;42.022;23.078;2023-03-26T01:05:48;96166.56;;;11.28;84.67
20015;BME280;61787;42.022;23.078;2023-03-26T01:06:53;96167.34;;;11.28;84.48
20015;BME280;61787;42.022;23.078;2023-03-26T01:07:56;96167.06;;;11.33;84.59
20015;BME280;61787;42.022;23.078;2023-03-26T01:09:01;96167.53;;;11.39;83.74
20015;BME280;61787;42.022;23.078;2023-03-26T01:10:04;96167.19;;;11.40;84.13
20015;BME280;61787;42.022;23.078;2023-03-26T01:11:12;96169.56;;;11.45;83.32
20015;BME280;61787;42.022;23.078;2023-03-26T01:12:20;96165.47;;;11.51;83.00
20015;BME280;61787;42.022;23.078;2023-03-26T01:13:23;96169.66;;;11.49;82.20
20015;BME280;61787;42.022;23.078;2023-03-26T01:14:26;96177.72;;;11.49;82.76
20015;BME280;61787;42.022;23.078;2023-03-26T01:15:29;96169.28;;;11.50;82.27
20015;BME280;61787;42.022;23.078;2023-03-26T01:16:35;96171.56;;;11.48;82.05
20015;BME280;61787;42.022;23.078;2023-03-26T01:17:38;96170.41;;;11.30;80.31
20015;BME280;61787;42.022;23.078;2023-03-26T01:18:40;96168.28;;;11.01;79.57
20015;BME280;61787;42.022;23.078;2023-03-26T01:19:46;96172.22;;;10.72;81.09
20015;BME280;61787;42.022;23.078;2023-03-26T01:20:50;96175.31;;;10.39;82.81
20015;BME280;61787;42.022;23.078;2023-03-26T01:21:52;96173.56;;;10.31;83.29
20015;BME280;61787;42.022;23.078;2023-03-26T01:23:01;96171.50;;;10.24;84.03
20015;BME280;61787;42.022;23.078;2023-03-26T01:24:07;96174.78;;;10.18;84.84
20015;BME280;61787;42.022;23.078;2023-03-26T01:25:09;96175.47;;;10.15;85.30
20015;BME280;61787;42.022;23.078;2023-03-26T01:26:23;96179.69;;;10.16;85.47
20015;BME280;61787;42.022;23.078;2023-03-26T01:27:49;96175.06;;;10.01;85.22
20015;BME280;61787;42.022;23.078;2023-03-26T01:28:54;96168.19;;;10.00;85.19
20015;BME280;61787;42.022;23.078;2023-03-26T01:31:32;96176.28;;;9.88;86.87
20015;BME280;61787;42.022;23.078;2023-03-26T01:33:57;96178.25;;;9.91;86.00
20015;BME280;61787;42.022;23.078;2023-03-26T01:37:00;96184.59;;;10.14;85.89
20015;BME280;61787;42.022;23.078;2023-03-26T01:39:30;96184.38;;;10.19;85.63
20015;BME280;61787;42.022;23.078;2023-03-26T01:40:35;96183.25;;;10.20;85.48
20015;BME280;61787;42.022;23.078;2023-03-26T01:42:32;96187.91;;;10.23;84.50
20015;BME280;61787;42.022;23.078;2023-03-26T01:43:29;96189.28;;;10.17;84.50
20015;BME280;61787;42.022;23.078;2023-03-26T01:45:16;96190.16;;;10.21;84.70
20015;BME280;61787;42.022;23.078;2023-03-26T01:46:10;96188.69;;;10.23;85.05
20015;BME280;61787;42.022;23.078;2023-03-26T01:47:14;96189.56;;;10.27;84.76
20015;BME280;61787;42.022;23.078;2023-03-26T01:48:18;96192.69;;;10.30;84.54
20015;BME280;61787;42.022;23.078;2023-03-26T01:49:20;96190.34;;;10.28;85.08
20015;BME280;61787;42.022;23.078;2023-03-26T01:50:21;96186.03;;;10.23;85.50
20015;BME280;61787;42.022;23.078;2023-03-26T01:51:34;96186.94;;;10.15;86.49
20015;BME280;61787;42.022;23.078;2023-03-26T01:52:36;96186.84;;;10.12;85.26
20015;BME280;61787;42.022;23.078;2023-03-26T01:53:44;96181.72;;;10.19;86.31
20015;BME280;61787;42.022;23.078;2023-03-26T01:54:47;96178.69;;;10.20;86.34
20015;BME280;61787;42.022;23.078;2023-03-26T02:00:54;96190.25;;;10.24;86.48
20015;BME280;61787;42.022;23.078;2023-03-26T02:02:12;96188.97;;;10.34;85.91
20015;BME280;61787;42.022;23.078;2023-03-26T02:03:29;96185.31;;;10.42;85.00
20015;BME280;61787;42.022;23.078;2023-03-26T02:04:38;96195.38;;;10.45;84.97
20015;BME280;61787;42.022;23.078;2023-03-26T02:06:59;96185.16;;;10.35;85.23
20015;BME280;61787;42.022;23.078;2023-03-26T02:09:29;96190.34;;;10.28;85.55
20015;BME280;61787;42.022;23.078;2023-03-26T02:10:35;96190.78;;;10.30;85.83
20015;BME280;61787;42.022;23.078;2023-03-26T02:11:39;96186.88;;;10.27;85.25
20015;BME280;61787;42.022;23.078;2023-03-26T02:12:43;96192.56;;;10.26;85.58
20015;BME280;61787;42.022;23.078;2023-03-26T02:13:45;96191.03;;;10.25;86.03
20015;BME280;61787;42.022;23.078;2023-03-26T02:14:47;96199.88;;;10.25;85.87
20015;BME280;61787;42.022;23.078;2023-03-26T02:16:00;96197.94;;;10.26;86.00
20015;BME280;61787;42.022;23.078;2023-03-26T02:17:03;96203.28;;;10.26;86.19
20015;BME280;61787;42.022;23.078;2023-03-26T02:18:05;96200.28;;;10.27;85.88
20015;BME280;61787;42.022;23.078;2023-03-26T02:19:07;96203.28;;;10.26;85.98
20015;BME280;61787;42.022;23.078;2023-03-26T02:20:16;96201.91;;;10.32;86.19
20015;BME280;61787;42.022;23.078;2023-03-26T02:21:21;96210.41;;;10.34;85.32
20015;BME280;61787;42.022;23.078;2023-03-26T02:22:23;96209.63;;;10.34;85.35
20015;BME280;61787;42.022;23.078;2023-03-26T02:23:32;96201.06;;;10.28;86.21
20015;BME280;61787;42.022;23.078;2023-03-26T02:24:37;96204.84;;;10.27;85.40
20015;BME280;61787;42.022;23.078;2023-03-26T02:25:39;96208.75;;;10.30;86.05
20015;BME280;61787;42.022;23.078;2023-03-26T02:26:42;96211.06;;;10.31;86.40
20015;BME280;61787;42.022;23.078;2023-03-26T02:27:44;96212.38;;;10.37;86.03
20015;BME280;61787;42.022;23.078;2023-03-26T02:28:46;96210.94;;;10.55;84.67
20015;BME280;61787;42.022;23.078;2023-03-26T02:29:47;96211.97;;;10.66;84.40
20015;BME280;61787;42.022;23.078;2023-03-26T02:30:50;96212.03;;;10.70;82.99
20015;BME280;61787;42.022;23.078;2023-03-26T02:31:52;96214.13;;;10.61;83.45
20015;BME280;61787;42.022;23.078;2023-03-26T02:32:54;96207.13;;;10.56;84.66
20015;BME280;61787;42.022;23.078;2023-03-26T02:33:59;96207.53;;;10.58;84.56
20015;BME280;61787;42.022;23.078;2023-03-26T02:35:02;96200.88;;;10.52;84.54
20015;BME280;61787;42.022;23.078;2023-03-26T02:36:06;96203.75;;;10.44;84.82
20015;BME280;61787;42.022;23.078;2023-03-26T02:37:09;96205.47;;;10.52;85.36
20015;BME280;61787;42.022;23.078;2023-03-26T02:38:10;96197.00;;;10.50;84.62
20015;BME280;61787;42.022;23.078;2023-03-26T02:39:14;96204.84;;;10.58;85.55
20015;BME280;61787;42.022;23.078;2023-03-26T02:40:17;96213.50;;;10.67;83.88
20015;BME280;61787;42.022;23.078;2023-03-26T02:41:21;96204.50;;;10.76;83.96
20015;BME280;61787;42.022;23.078;2023-03-26T02:42:22;96207.69;;;10.81;83.89
20015;BME280;61787;42.022;23.078;2023-03-26T02:43:24;96212.44;;;10.88;82.48
20015;BME280;61787;42.022;23.078;2023-03-26T02:44:26;96220.06;;;10.86;81.90
20015;BME280;61787;42.022;23.078;2023-03-26T02:45:28;96220.91;;;10.90;82.94
20015;BME280;61787;42.022;23.078;2023-03-26T02:46:31;96222.22;;;10.80;82.05
20015;BME280;61787;42.022;23.078;2023-03-26T02:47:32;96220.75;;;10.83;82.59
20015;BME280;61787;42.022;23.078;2023-03-26T02:48:34;96224.72;;;10.89;82.30
20015;BME280;61787;42.022;23.078;2023-03-26T02:49:36;96221.19;;;10.85;82.18
20015;BME280;61787;42.022;23.078;2023-03-26T02:50:38;96222.31;;;10.84;81.66
20015;BME280;61787;42.022;23.078;2023-03-26T02:51:39;96216.25;;;10.87;82.64
20015;BME280;61787;42.022;23.078;2023-03-26T02:52:41;96218.66;;;10.92;81.99
20015;BME280;61787;42.022;23.078;2023-03-26T02:53:43;96219.94;;;10.98;80.95
20015;BME280;61787;42.022;23.078;2023-03-26T02:54:45;96214.75;;;11.05;80.78
20015;BME280;61787;42.022;23.078;2023-03-26T02:55:47;96225.03;;;11.03;80.37
20015;BME280;61787;42.022;23.078;2023-03-26T02:56:48;96224.69;;;11.04;80.74
20015;BME280;61787;42.022;23.078;2023-03-26T02:57:50;96218.72;;;11.11;80.68
20015;BME280;61787;42.022;23.078;2023-03-26T02:58:52;96224.34;;;11.06;80.34
20015;BME280;61787;42.022;23.078;2023-03-26T02:59:53;96232.06;;;11.07;80.69
20015;BME280;61787;42.022;23.078;2023-03-26T03:00:55;96229.44;;;11.11;79.23
20015;BME280;61787;42.022;23.078;2023-03-26T03:01:57;96237.06;;;11.09;79.81
20015;BME280;61787;42.022;23.078;2023-03-26T03:02:59;96237.06;;;11.09;80.90
20015;BME280;61787;42.022;23.078;2023-03-26T03:04:04;96232.66;;;11.01;81.17
20015;BME280;61787;42.022;23.078;2023-03-26T03:05:09;96231.09;;;11.00;81.45
20015;BME280;61787;42.022;23.078;2023-03-26T03:06:10;96226.09;;;10.98;80.29
20015;BME280;61787;42.022;23.078;2023-03-26T03:07:12;96230.84;;;10.89;80.78
20015;BME280;61787;42.022;23.078;2023-03-26T03:08:19;96234.84;;;10.95;81.53
20015;BME280;61787;42.022;23.078;2023-03-26T03:09:22;96238.56;;;10.91;81.37
20015;BME280;61787;42.022;23.078;2023-03-26T03:10:26;96237.97;;;10.82;81.65
20015;BME280;61787;42.022;23.078;2023-03-26T03:11:28;96240.13;;;10.92;81.23
20015;BME280;61787;42.022;23.078;2023-03-26T03:12:30;96237.59;;;10.99;80.92
20015;BME280;61787;42.022;23.078;2023-03-26T03:13:32;96246.06;;;11.01;80.25
20015;BME280;61787;42.022;23.078;2023-03-26T03:14:34;96243.41;;;11.01;80.03
20015;BME280;61787;42.022;23.078;2023-03-26T03:15:35;96247.19;;;11.00;79.33
20015;BME280;61787;42.022;23.078;2023-03-26T03:16:37;96246.41;;;10.99;79.32
20015;BME280;61787;42.022;23.078;2023-03-26T03:17:39;96250.22;;;10.98;79.88
20015;BME280;61787;42.022;23.078;2023-03-26T03:18:42;96243.41;;;11.01;78.41
20015;BME280;61787;42.022;23.078;2023-03-26T03:19:43;96251.34;;;11.13;77.44
20015;BME280;61787;42.022;23.078;2023-03-26T03:20:45;96258.09;;;11.07;77.71
20015;BME280;61787;42.022;23.078;2023-03-26T03:21:47;96258.50;;;11.09;76.86
20015;BME280;61787;42.022;23.078;2023-03-26T03:22:49;96266.56;;;11.09;77.04
20015;BME280;61787;42.022;23.078;2023-03-26T03:23:51;96264.31;;;11.11;77.20
20015;BME280;61787;42.022;23.078;2023-03-26T03:24:52;96259.41;;;11.13;77.08
20015;BME280;61787;42.022;23.078;2023-03-26T03:25:58;96249.78;;;11.12;77.09
20015;BME280;61787;42.022;23.078;2023-03-26T03:26:59;96259.81;;;11.15;76.22
20015;BME280;61787;42.022;23.078;2023-03-26T03:28:02;96256.00;;;11.16;77.38
20015;BME280;61787;42.022;23.078;2023-03-26T03:29:04;96261.38;;;11.16;76.52
20015;BME280;61787;42.022;23.078;2023-03-26T03:30:06;96260.75;;;11.23;76.23
20015;BME280;61787;42.022;23.078;2023-03-26T03:31:08;96257.56;;;11.17;76.06
20015;BME280;61787;42.022;23.078;2023-03-26T03:32:10;96261.81;;;11.18;76.63
20015;BME280;61787;42.022;23.078;2023-03-26T03:33:12;96262.22;;;11.20;75.65
20015;BME280;61787;42.022;23.078;2023-03-26T03:34:13;96262.22;;;11.20;75.97
20015;BME280;61787;42.022;23.078;2023-03-26T03:35:15;96264.13;;;11.20;76.04
20015;BME280;61787;42.022;23.078;2023-03-26T03:36:19;96259.81;;;11.15;76.35
20015;BME280;61787;42.022;23.078;2023-03-26T03:37:24;96263.63;;;11.14;76.62
20015;BME280;61787;42.022;23.078;2023-03-26T03:38:27;96262.75;;;11.10;76.98
20015;BME280;61787;42.022;23.078;2023-03-26T03:39:28;96258.78;;;11.04;76.37
20015;BME280;61787;42.022;23.078;2023-03-26T03:40:30;96260.34;;;11.05;75.78
20015;BME280;61787;42.022;23.078;2023-03-26T03:41:32;96252.38;;;10.93;76.17
20015;BME280;61787;42.022;23.078;2023-03-26T03:42:33;96259.31;;;10.94;76.69
20015;BME280;61787;42.022;23.078;2023-03-26T03:43:35;96259.31;;;10.94;76.70
20015;BME280;61787;42.022;23.078;2023-03-26T03:44:36;96266.25;;;10.95;76.55
20015;BME280;61787;42.022;23.078;2023-03-26T03:45:38;96257.16;;;10.99;76.54
20015;BME280;61787;42.022;23.078;2023-03-26T03:46:40;96263.22;;;10.96;75.99
20015;BME280;61787;42.022;23.078;2023-03-26T03:47:41;96258.19;;;10.95;76.19
20015;BME280;61787;42.022;23.078;2023-03-26T03:48:44;96264.00;;;10.97;75.48
20015;BME280;61787;42.022;23.078;2023-03-26T03:49:49;96262.44;;;10.96;76.78
20015;BME280;61787;42.022;23.078;2023-03-26T03:50:53;96265.91;;;10.96;76.34
20015;BME280;61787;42.022;23.078;2023-03-26T03:51:55;96264.78;;;10.97;75.98
20015;BME280;61787;42.022;23.078;2023-03-26T03:52:57;96271.69;;;10.98;76.08
20015;BME280;61787;42.022;23.078;2023-03-26T03:53:59;96256.38;;;10.99;76.03
20015;BME280;61787;42.022;23.078;2023-03-26T03:55:01;96264.00;;;10.97;75.94
20015;BME280;61787;42.022;23.078;2023-03-26T03:56:02;96273.84;;;10.93;75.86
20015;BME280;61787;42.022;23.078;2023-03-26T03:57:05;96262.63;;;10.87;75.89
20015;BME280;61787;42.022;23.078;2023-03-26T03:58:06;96274.81;;;10.85;76.39
20015;BME280;61787;42.022;23.078;2023-03-26T03:59:10;96269.19;;;10.90;75.69
20015;BME280;61787;42.022;23.078;2023-03-26T04:00:12;96280.78;;;10.94;76.19
20015;BME280;61787;42.022;23.078;2023-03-26T04:01:15;96282.59;;;10.90;76.33
20015;BME280;61787;42.022;23.078;2023-03-26T04:02:17;96283.38;;;10.90;75.43
20015;BME280;61787;42.022;23.078;2023-03-26T04:03:27;96283.03;;;10.92;75.66
20015;BME280;61787;42.022;23.078;2023-03-26T04:04:34;96283.97;;;10.99;75.46
20015;BME280;61787;42.022;23.078;2023-03-26T04:05:37;96288.28;;;11.04;74.78
20015;BME280;61787;42.022;23.078;2023-03-26T04:06:41;96287.88;;;11.02;74.88
20015;BME280;61787;42.022;23.078;2023-03-26T04:07:42;96286.41;;;11.04;75.31
20015;BME280;61787;42.022;23.078;2023-03-26T04:08:45;96294.97;;;11.10;74.49
20015;BME280;61787;42.022;23.078;2023-03-26T04:09:47;96292.97;;;11.07;74.08
20015;BME280;61787;42.022;23.078;2023-03-26T04:10:50;96301.03;;;11.07;75.15
20015;BME280;61787;42.022;23.078;2023-03-26T04:11:52;96297.06;;;11.01;74.50
20015;BME280;61787;42.022;23.078;2023-03-26T04:12:53;96301.56;;;10.97;74.03
20015;BME280;61787;42.022;23.078;2023-03-26T04:13:55;96299.47;;;10.90;75.29
20015;BME280;61787;42.022;23.078;2023-03-26T04:14:57;96301.19;;;10.83;75.91
20015;BME280;61787;42.022;23.078;2023-03-26T04:15:59;96296.53;;;10.80;76.32
20015;BME280;61787;42.022;23.078;2023-03-26T04:17:01;96301.31;;;10.71;76.90
20015;BME280;61787;42.022;23.078;2023-03-26T04:18:02;96306.13;;;10.65;76.99
20015;BME280;61787;42.022;23.078;2023-03-26T04:19:04;96300.69;;;10.61;76.61
20015;BME280;61787;42.022;23.078;2023-03-26T04:20:07;96302.84;;;10.56;77.22
20015;BME280;61787;42.022;23.078;2023-03-26T04:21:09;96304.75;;;10.55;76.67
20015;BME280;61787;42.022;23.078;2023-03-26T04:22:13;96305.16;;;10.57;76.69
20015;BME280;61787;42.022;23.078;2023-03-26T04:23:16;96304.50;;;10.60;76.61
20015;BME280;61787;42.022;23.078;2023-03-26T04:24:18;96303.78;;;10.63;75.49
20015;BME280;61787;42.022;23.078;2023-03-26T04:25:22;96300.69;;;10.61;76.21
20015;BME280;61787;42.022;23.078;2023-03-26T04:26:30;96303.38;;;10.61;75.99
20015;BME280;61787;42.022;23.078;2023-03-26T04:27:32;96306.31;;;10.56;76.72
20015;BME280;61787;42.022;23.078;2023-03-26T04:28:46;96308.09;;;10.52;77.06
20015;BME280;61787;42.022;23.078;2023-03-26T04:29:49;96310.53;;;10.57;76.49
20015;BME280;61787;42.022;23.078;2023-03-26T04:30:52;96305.88;;;10.54;76.38
20015;BME280;61787;42.022;23.078;2023-03-26T04:31:55;96310.25;;;10.47;77.20
20015;BME280;61787;42.022;23.078;2023-03-26T04:33:00;96308.59;;;10.42;77.27
20015;BME280;61787;42.022;23.078;2023-03-26T04:34:07;96316.22;;;10.40;77.40
20015;BME280;61787;42.022;23.078;2023-03-26T04:35:15;96320.03;;;10.39;77.89
20015;BME280;61787;42.022;23.078;2023-03-26T04:36:17;96325.38;;;10.39;78.06
20015;BME280;61787;42.022;23.078;2023-03-26T04:37:38;96333.44;;;10.39;77.96
20015;BME280;61787;42.022;23.078;2023-03-26T04:38:43;96327.03;;;10.44;77.05
20015;BME280;61787;42.022;23.078;2023-03-26T04:39:45;96329.19;;;10.38;77.76
20015;BME280;61787;42.022;23.078;2023-03-26T04:40:47;96343.03;;;10.40;77.94
20015;BME280;61787;42.022;23.078;2023-03-26T04:41:48;96334.63;;;10.42;77.68
20015;BME280;61787;42.022;23.078;2023-03-26T04:42:50;96331.19;;;10.41;78.02
20015;BME280;61787;42.022;23.078;2023-03-26T04:43:55;96336.19;;;10.43;78.33
20015;BME280;61787;42.022;23.078;2023-03-26T04:44:57;96335.53;;;10.46;78.51
20015;BME280;61787;42.022;23.078;2023-03-26T04:46:00;96327.22;;;10.51;77.15
20015;BME280;61787;42.022;23.078;2023-03-26T04:47:04;96338.97;;;10.46;77.41
20015;BME280;61787;42.022;23.078;2023-03-26T04:48:07;96337.59;;;10.52;76.91
20015;BME280;61787;42.022;23.078;2023-03-26T04:49:14;96342.69;;;10.57;76.17
20015;BME280;61787;42.022;23.078;2023-03-26T04:50:16;96354.13;;;10.54;76.53
20015;BME280;61787;42.022;23.078;2023-03-26T04:51:19;96339.94;;;10.54;76.96
20015;BME280;61787;42.022;23.078;2023-03-26T04:52:23;96335.81;;;10.56;76.21
20015;BME280;61787;42.022;23.078;2023-03-26T04:53:25;96341.25;;;10.60;77.34
20015;BME280;61787;42.022;23.078;2023-03-26T04:54:26;96341.16;;;10.56;76.60
20015;BME280;61787;42.022;23.078;2023-03-26T04:55:40;96342.28;;;10.55;77.01
20015;BME280;61787;42.022;23.078;2023-03-26T04:56:59;96336.66;;;10.60;77.97
20015;BME280;61787;42.022;23.078;2023-03-26T04:58:02;96338.91;;;10.58;76.83
20015;BME280;61787;42.022;23.078;2023-03-26T04:59:09;96346.53;;;10.56;78.07
20015;BME280;61787;42.022;23.078;2023-03-26T05:00:14;96348.31;;;10.52;78.12
20015;BME280;61787;42.022;23.078;2023-03-26T05:01:17;96347.09;;;10.50;78.37
20015;BME280;61787;42.022;23.078;2023-03-26T05:02:20;96348.06;;;10.57;77.84
20015;BME280;61787;42.022;23.078;2023-03-26T05:03:21;96341.31;;;10.63;77.42
20015;BME280;61787;42.022;23.078;2023-03-26T05:04:23;96351.38;;;10.66;77.94
20015;BME280;61787;42.022;23.078;2023-03-26T05:05:26;96356.03;;;10.69;76.62
20015;BME280;61787;42.022;23.078;2023-03-26T05:06:29;96353.81;;;10.72;78.21
20015;BME280;61787;42.022;23.078;2023-03-26T05:07:34;96353.09;;;10.75;77.77
20015;BME280;61787;42.022;23.078;2023-03-26T05:08:36;96359.78;;;10.81;77.01
20015;BME280;61787;42.022;23.078;2023-03-26T05:09:38;96365.16;;;10.81;77.42
20015;BME280;61787;42.022;23.078;2023-03-26T05:10:39;96355.53;;;10.80;77.13
20015;BME280;61787;42.022;23.078;2023-03-26T05:11:41;96365.06;;;10.77;77.24
20015;BME280;61787;42.022;23.078;2023-03-26T05:12:42;96366.00;;;10.85;76.27
20015;BME280;61787;42.022;23.078;2023-03-26T05:13:44;96367.13;;;10.84;77.08
20015;BME280;61787;42.022;23.078;2023-03-26T05:14:47;96370.66;;;10.88;77.55
20015;BME280;61787;42.022;23.078;2023-03-26T05:15:49;96373.88;;;10.93;77.13
20015;BME280;61787;42.022;23.078;2023-03-26T05:16:51;96371.19;;;10.93;76.26
20015;BME280;61787;42.022;23.078;2023-03-26T05:17:53;96373.63;;;10.98;75.81
20015;BME280;61787;42.022;23.078;2023-03-26T05:18:56;96369.47;;;11.01;75.56
20015;BME280;61787;42.022;23.078;2023-03-26T05:19:57;96368.25;;;10.98;75.41
20015;BME280;61787;42.022;23.078;2023-03-26T05:20:59;96375.25;;;11.03;75.38
20015;BME280;61787;42.022;23.078;2023-03-26T05:22:01;96365.75;;;11.05;75.86
20015;BME280;61787;42.022;23.078;2023-03-26T05:23:02;96377.78;;;11.11;75.73
20015;BME280;61787;42.022;23.078;2023-03-26T05:24:04;96379.34;;;11.13;74.60
20015;BME280;61787;42.022;23.078;2023-03-26T05:25:07;96375.91;;;11.12;75.49
20015;BME280;61787;42.022;23.078;2023-03-26T05:26:09;96383.16;;;11.11;74.81
20015;BME280;61787;42.022;23.078;2023-03-26T05:27:15;96377.69;;;11.08;75.22
20015;BME280;61787;42.022;23.078;2023-03-26T05:28:20;96380.81;;;11.10;75.21
20015;BME280;61787;42.022;23.078;2023-03-26T05:29:24;96386.63;;;11.12;75.57
20015;BME280;61787;42.022;23.078;2023-03-26T05:30:27;96387.66;;;11.07;75.47
20015;BME280;61787;42.022;23.078;2023-03-26T05:31:29;96382.97;;;11.04;76.25
20015;BME280;61787;42.022;23.078;2023-03-26T05:32:31;96372.31;;;11.08;76.08
20015;BME280;61787;42.022;23.078;2023-03-26T05:33:33;96372.31;;;11.08;76.07
20015;BME280;61787;42.022;23.078;2023-03-26T05:34:35;96378.22;;;11.13;75.46
20015;BME280;61787;42.022;23.078;2023-03-26T05:35:38;96373.72;;;11.18;74.94
20015;BME280;61787;42.022;23.078;2023-03-26T05:36:40;96378.72;;;11.19;75.05
20015;BME280;61787;42.022;23.078;2023-03-26T05:37:44;96376.03;;;11.19;75.68
20015;BME280;61787;42.022;23.078;2023-03-26T05:38:46;96376.94;;;11.23;74.57
20015;BME280;61787;42.022;23.078;2023-03-26T05:39:53;96384.47;;;11.33;74.37
20015;BME280;61787;42.022;23.078;2023-03-26T05:41:08;96392.16;;;11.35;74.78
20015;BME280;61787;42.022;23.078;2023-03-26T05:42:10;96383.75;;;11.36;74.93
20015;BME280;61787;42.022;23.078;2023-03-26T05:43:11;96389.13;;;11.36;74.61
20015;BME280;61787;42.022;23.078;2023-03-26T05:44:13;96391.53;;;11.41;75.10
20015;BME280;61787;42.022;23.078;2023-03-26T05:45:14;96391.09;;;11.39;75.54
20015;BME280;61787;42.022;23.078;2023-03-26T05:46:16;96394.66;;;11.43;74.34
20015;BME280;61787;42.022;23.078;2023-03-26T05:47:20;96385.84;;;11.43;75.17
20015;BME280;61787;42.022;23.078;2023-03-26T05:48:22;96389.97;;;11.40;75.48